sensor_id;sensor_type;location;lat;lon;timestamp;temperature;humidity
3528;DHT22;1778;47.966;7.854;2023-08-06T00:00:59;16.90;99.90
3528;DHT22;1778;47.966;7.854;2023-08-06T00:02:01;16.80;99.90
3528;DHT22;1778;47.966;7.854;2023-08-06T00:03:03;16.70;99.90
3528;DHT22;1778;47.966;7.854;2023-08-06T00:04:04;16.70;99.90
3528;DHT22;1778;47.966;7.854;2023-08-06T00:05:06;16.60;99.90
3528;DHT22;1778;47.966;7.854;2023-08-06T00:06:07;16.60;99.90
3528;DHT22;1778;47.966;7.854;2023-08-06T00:07:09;16.60;99.90
3528;DHT22;1778;47.966;7.854;2023-08-06T00:08:10;16.50;99.90
3528;DHT22;1778;47.966;7.854;2023-08-06T00:09:12;16.50;99.90
3528;DHT22;1778;47.966;7.854;2023-08-06T00:10:15;16.40;99.90
3528;DHT22;1778;47.966;7.854;2023-08-06T00:11:17;16.40;99.90
3528;DHT22;1778;47.966;7.854;2023-08-06T00:12:19;16.30;99.90
3528;DHT22;1778;47.966;7.854;2023-08-06T00:13:20;16.20;99.90
3528;DHT22;1778;47.966;7.854;2023-08-06T00:14:22;16.20;99.90
3528;DHT22;1778;47.966;7.854;2023-08-06T00:15:24;16.20;99.90
3528;DHT22;1778;47.966;7.854;2023-08-06T00:16:25;16.10;99.90
3528;DHT22;1778;47.966;7.854;2023-08-06T00:17:27;16.00;99.90
3528;DHT22;1778;47.966;7.854;2023-08-06T00:18:29;16.00;99.90
3528;DHT22;1778;47.966;7.854;2023-08-06T00:19:31;15.90;99.90
3528;DHT22;1778;47.966;7.854;2023-08-06T00:20:33;15.90;99.90
3528;DHT22;1778;47.966;7.854;2023-08-06T00:21:34;15.90;99.90
3528;DHT22;1778;47.966;7.854;2023-08-06T00:22:38;15.80;99.90
3528;DHT22;1778;47.966;7.854;2023-08-06T00:23:40;15.80;99.90
3528;DHT22;1778;47.966;7.854;2023-08-06T00:24:42;15.70;99.90
3528;DHT22;1778;47.966;7.854;2023-08-06T00:25:43;15.70;99.90
3528;DHT22;1778;47.966;7.854;2023-08-06T00:26:45;15.80;99.90
3528;DHT22;1778;47.966;7.854;2023-08-06T00:27:46;15.70;99.90
3528;DHT22;1778;47.966;7.854;2023-08-06T00:28:48;15.70;99.90
3528;DHT22;1778;47.966;7.854;2023-08-06T00:29:49;15.70;99.90
3528;DHT22;1778;47.966;7.854;2023-08-06T00:30:55;15.70;99.90
3528;DHT22;1778;47.966;7.854;2023-08-06T00:31:57;15.70;99.90
3528;DHT22;1778;47.966;7.854;2023-08-06T00:32:59;15.60;99.90
3528;DHT22;1778;47.966;7.854;2023-08-06T00:34:00;15.60;99.90
3528;DHT22;1778;47.966;7.854;2023-08-06T00:35:02;15.70;99.90
3528;DHT22;1778;47.966;7.854;2023-08-06T00:36:04;15.60;99.90
3528;DHT22;1778;47.966;7.854;2023-08-06T00:37:06;15.60;99.90
3528;DHT22;1778;47.966;7.854;2023-08-06T00:38:07;15.60;99.90
3528;DHT22;1778;47.966;7.854;2023-08-06T00:39:09;15.60;99.90
3528;DHT22;1778;47.966;7.854;2023-08-06T00:40:10;15.60;99.90
3528;DHT22;1778;47.966;7.854;2023-08-06T00:41:12;15.60;99.90
3528;DHT22;1778;47.966;7.854;2023-08-06T00:42:13;15.60;99.90
3528;DHT22;1778;47.966;7.854;2023-08-06T00:43:14;15.60;99.90
3528;DHT22;1778;47.966;7.854;2023-08-06T00:44:16;15.50;99.90
3528;DHT22;1778;47.966;7.854;2023-08-06T00:45:17;15.50;99.90
3528;DHT22;1778;47.966;7.854;2023-08-06T00:46:19;15.40;99.90
3528;DHT22;1778;47.966;7.854;2023-08-06T00:47:21;15.40;99.90
3528;DHT22;1778;47.966;7.854;2023-08-06T00:48:22;15.40;99.90
3528;DHT22;1778;47.966;7.854;2023-08-06T00:49:24;15.40;99.90
3528;DHT22;1778;47.966;7.854;2023-08-06T00:50:26;15.40;99.90
3528;DHT22;1778;47.966;7.854;2023-08-06T00:51:28;15.40;99.90
3528;DHT22;1778;47.966;7.854;2023-08-06T00:52:30;15.40;99.90
3528;DHT22;1778;47.966;7.854;2023-08-06T00:53:31;15.40;99.90
3528;DHT22;1778;47.966;7.854;2023-08-06T00:54:34;15.40;99.90
3528;DHT22;1778;47.966;7.854;2023-08-06T00:55:36;15.40;99.90
3528;DHT22;1778;47.966;7.854;2023-08-06T00:56:37;15.30;99.90
3528;DHT22;1778;47.966;7.854;2023-08-06T00:57:39;15.30;99.90
3528;DHT22;1778;47.966;7.854;2023-08-06T00:58:42;15.30;99.90
3528;DHT22;1778;47.966;7.854;2023-08-06T00:59:44;15.40;99.90
3528;DHT22;1778;47.966;7.854;2023-08-06T01:00:45;15.40;99.90
3528;DHT22;1778;47.966;7.854;2023-08-06T01:01:48;15.40;99.90
3528;DHT22;1778;47.966;7.854;2023-08-06T01:02:53;15.40;99.90
3528;DHT22;1778;47.966;7.854;2023-08-06T01:03:54;15.40;99.90
3528;DHT22;1778;47.966;7.854;2023-08-06T01:04:56;15.40;99.90
3528;DHT22;1778;47.966;7.854;2023-08-06T01:05:58;15.40;99.90
3528;DHT22;1778;47.966;7.854;2023-08-06T01:11:33;15.40;99.90
3528;DHT22;1778;47.966;7.854;2023-08-06T01:12:51;15.30;99.90
3528;DHT22;1778;47.966;7.854;2023-08-06T01:14:04;15.30;99.90
3528;DHT22;1778;47.966;7.854;2023-08-06T01:15:17;15.40;99.90
3528;DHT22;1778;47.966;7.854;2023-08-06T01:16:21;15.40;99.90
3528;DHT22;1778;47.966;7.854;2023-08-06T01:17:24;15.40;99.90
3528;DHT22;1778;47.966;7.854;2023-08-06T01:18:27;15.40;99.90
3528;DHT22;1778;47.966;7.854;2023-08-06T01:19:29;15.50;99.90
3528;DHT22;1778;47.966;7.854;2023-08-06T01:20:31;15.50;99.90
3528;DHT22;1778;47.966;7.854;2023-08-06T01:21:32;15.50;99.90
3528;DHT22;1778;47.966;7.854;2023-08-06T01:22:34;15.60;99.90
3528;DHT22;1778;47.966;7.854;2023-08-06T01:23:36;15.60;99.90
3528;DHT22;1778;47.966;7.854;2023-08-06T01:24:38;15.70;99.90
3528;DHT22;1778;47.966;7.854;2023-08-06T01:25:56;15.60;99.90
3528;DHT22;1778;47.966;7.854;2023-08-06T01:27:14;15.60;99.90
3528;DHT22;1778;47.966;7.854;2023-08-06T01:28:27;15.80;99.90
3528;DHT22;1778;47.966;7.854;2023-08-06T01:31:27;15.80;99.90
3528;DHT22;1778;47.966;7.854;2023-08-06T01:32:34;15.90;99.90
3528;DHT22;1778;47.966;7.854;2023-08-06T01:33:38;15.80;99.90
3528;DHT22;1778;47.966;7.854;2023-08-06T01:34:44;15.90;99.90
3528;DHT22;1778;47.966;7.854;2023-08-06T01:35:46;15.90;99.90
3528;DHT22;1778;47.966;7.854;2023-08-06T01:36:49;15.90;99.90
3528;DHT22;1778;47.966;7.854;2023-08-06T01:37:51;16.00;99.90
3528;DHT22;1778;47.966;7.854;2023-08-06T01:38:53;16.00;99.90
3528;DHT22;1778;47.966;7.854;2023-08-06T01:39:55;16.00;99.90
3528;DHT22;1778;47.966;7.854;2023-08-06T01:40:56;16.10;99.90
3528;DHT22;1778;47.966;7.854;2023-08-06T01:41:58;16.10;99.90
3528;DHT22;1778;47.966;7.854;2023-08-06T01:42:59;16.10;99.90
3528;DHT22;1778;47.966;7.854;2023-08-06T01:44:01;16.10;99.90
3528;DHT22;1778;47.966;7.854;2023-08-06T01:45:03;16.10;99.90
3528;DHT22;1778;47.966;7.854;2023-08-06T01:46:04;16.10;99.90
3528;DHT22;1778;47.966;7.854;2023-08-06T01:47:06;16.20;99.90
3528;DHT22;1778;47.966;7.854;2023-08-06T01:48:07;16.20;99.90
3528;DHT22;1778;47.966;7.854;2023-08-06T01:49:09;16.30;99.90
3528;DHT22;1778;47.966;7.854;2023-08-06T01:50:10;16.30;99.90
3528;DHT22;1778;47.966;7.854;2023-08-06T01:51:12;16.30;99.90
3528;DHT22;1778;47.966;7.854;2023-08-06T01:52:13;16.20;99.90
3528;DHT22;1778;47.966;7.854;2023-08-06T01:53:15;16.30;99.90
3528;DHT22;1778;47.966;7.854;2023-08-06T01:54:16;16.30;99.90
3528;DHT22;1778;47.966;7.854;2023-08-06T01:55:18;16.40;99.90
3528;DHT22;1778;47.966;7.854;2023-08-06T01:56:20;16.40;99.90
3528;DHT22;1778;47.966;7.854;2023-08-06T01:57:22;16.40;99.90
3528;DHT22;1778;47.966;7.854;2023-08-06T01:58:23;16.40;99.90
3528;DHT22;1778;47.966;7.854;2023-08-06T01:59:25;16.40;99.90
3528;DHT22;1778;47.966;7.854;2023-08-06T02:00:26;16.40;99.90
3528;DHT22;1778;47.966;7.854;2023-08-06T02:01:30;16.50;99.90
3528;DHT22;1778;47.966;7.854;2023-08-06T02:02:31;16.50;99.90
3528;DHT22;1778;47.966;7.854;2023-08-06T02:03:33;16.40;99.90
3528;DHT22;1778;47.966;7.854;2023-08-06T02:04:35;16.40;99.90
3528;DHT22;1778;47.966;7.854;2023-08-06T02:05:36;16.40;99.90
3528;DHT22;1778;47.966;7.854;2023-08-06T02:06:38;16.40;99.90
3528;DHT22;1778;47.966;7.854;2023-08-06T02:07:40;16.50;99.90
3528;DHT22;1778;47.966;7.854;2023-08-06T02:08:41;16.50;99.90
3528;DHT22;1778;47.966;7.854;2023-08-06T02:09:43;16.50;99.90
3528;DHT22;1778;47.966;7.854;2023-08-06T02:10:45;16.50;99.90
3528;DHT22;1778;47.966;7.854;2023-08-06T02:11:47;16.40;99.90
3528;DHT22;1778;47.966;7.854;2023-08-06T02:12:48;16.40;99.90
3528;DHT22;1778;47.966;7.854;2023-08-06T02:13:50;16.40;99.90
3528;DHT22;1778;47.966;7.854;2023-08-06T02:14:52;16.30;99.90
3528;DHT22;1778;47.966;7.854;2023-08-06T02:15:54;16.30;99.90
3528;DHT22;1778;47.966;7.854;2023-08-06T02:16:56;16.20;99.90
3528;DHT22;1778;47.966;7.854;2023-08-06T02:17:59;16.10;99.90
3528;DHT22;1778;47.966;7.854;2023-08-06T02:19:00;16.20;99.90
3528;DHT22;1778;47.966;7.854;2023-08-06T02:20:04;16.20;99.90
3528;DHT22;1778;47.966;7.854;2023-08-06T02:21:06;16.10;99.90
3528;DHT22;1778;47.966;7.854;2023-08-06T02:22:07;16.00;99.90
3528;DHT22;1778;47.966;7.854;2023-08-06T02:23:09;16.00;99.90
3528;DHT22;1778;47.966;7.854;2023-08-06T02:24:11;16.00;99.90
3528;DHT22;1778;47.966;7.854;2023-08-06T02:25:13;15.90;99.90
3528;DHT22;1778;47.966;7.854;2023-08-06T02:26:17;15.80;99.90
3528;DHT22;1778;47.966;7.854;2023-08-06T02:27:19;15.80;99.90
3528;DHT22;1778;47.966;7.854;2023-08-06T02:28:20;15.80;99.90
3528;DHT22;1778;47.966;7.854;2023-08-06T02:29:22;15.80;99.90
3528;DHT22;1778;47.966;7.854;2023-08-06T02:30:23;15.80;99.90
3528;DHT22;1778;47.966;7.854;2023-08-06T02:31:24;15.90;99.90
3528;DHT22;1778;47.966;7.854;2023-08-06T02:32:26;15.80;99.90
3528;DHT22;1778;47.966;7.854;2023-08-06T02:33:28;15.70;99.90
3528;DHT22;1778;47.966;7.854;2023-08-06T02:34:29;15.70;99.90
3528;DHT22;1778;47.966;7.854;2023-08-06T02:35:31;15.60;99.90
3528;DHT22;1778;47.966;7.854;2023-08-06T02:36:32;15.60;99.90
3528;DHT22;1778;47.966;7.854;2023-08-06T02:37:34;15.60;99.90
3528;DHT22;1778;47.966;7.854;2023-08-06T02:38:36;15.60;99.90
3528;DHT22;1778;47.966;7.854;2023-08-06T02:39:37;15.60;99.90
3528;DHT22;1778;47.966;7.854;2023-08-06T02:40:47;15.50;99.90
3528;DHT22;1778;47.966;7.854;2023-08-06T02:41:50;15.60;99.90
3528;DHT22;1778;47.966;7.854;2023-08-06T02:42:52;15.50;99.90
3528;DHT22;1778;47.966;7.854;2023-08-06T02:43:54;15.50;99.90
3528;DHT22;1778;47.966;7.854;2023-08-06T02:44:56;15.50;99.90
3528;DHT22;1778;47.966;7.854;2023-08-06T02:45:59;15.50;99.90
3528;DHT22;1778;47.966;7.854;2023-08-06T02:47:01;15.50;99.90
3528;DHT22;1778;47.966;7.854;2023-08-06T02:48:04;15.40;99.90
3528;DHT22;1778;47.966;7.854;2023-08-06T02:49:06;15.30;99.90
3528;DHT22;1778;47.966;7.854;2023-08-06T02:50:08;15.30;99.90
3528;DHT22;1778;47.966;7.854;2023-08-06T02:51:10;15.30;99.90
3528;DHT22;1778;47.966;7.854;2023-08-06T02:52:11;15.30;99.90
3528;DHT22;1778;47.966;7.854;2023-08-06T02:53:13;15.20;99.90
3528;DHT22;1778;47.966;7.854;2023-08-06T02:54:14;15.20;99.90
3528;DHT22;1778;47.966;7.854;2023-08-06T02:55:16;15.20;99.90
3528;DHT22;1778;47.966;7.854;2023-08-06T02:56:20;15.10;99.90
3528;DHT22;1778;47.966;7.854;2023-08-06T02:57:34;15.10;99.90
3528;DHT22;1778;47.966;7.854;2023-08-06T02:58:36;15.10;99.90
3528;DHT22;1778;47.966;7.854;2023-08-06T02:59:45;15.00;99.90
3528;DHT22;1778;47.966;7.854;2023-08-06T03:01:03;15.00;99.90
3528;DHT22;1778;47.966;7.854;2023-08-06T03:02:12;15.00;99.90
3528;DHT22;1778;47.966;7.854;2023-08-06T03:03:25;15.00;99.90
3528;DHT22;1778;47.966;7.854;2023-08-06T03:04:31;14.90;99.90
3528;DHT22;1778;47.966;7.854;2023-08-06T03:05:33;14.90;99.90
3528;DHT22;1778;47.966;7.854;2023-08-06T03:06:34;14.90;99.90
3528;DHT22;1778;47.966;7.854;2023-08-06T03:07:37;14.90;99.90
3528;DHT22;1778;47.966;7.854;2023-08-06T03:08:48;14.90;99.90
3528;DHT22;1778;47.966;7.854;2023-08-06T03:09:50;14.80;99.90
3528;DHT22;1778;47.966;7.854;2023-08-06T03:10:52;14.80;99.90
3528;DHT22;1778;47.966;7.854;2023-08-06T03:11:54;14.70;99.90
3528;DHT22;1778;47.966;7.854;2023-08-06T03:12:56;14.70;99.90
3528;DHT22;1778;47.966;7.854;2023-08-06T03:13:58;14.70;99.90
3528;DHT22;1778;47.966;7.854;2023-08-06T03:15:00;14.70;99.90
3528;DHT22;1778;47.966;7.854;2023-08-06T03:16:02;14.60;99.90
3528;DHT22;1778;47.966;7.854;2023-08-06T03:17:04;14.70;99.90
3528;DHT22;1778;47.966;7.854;2023-08-06T03:18:06;14.70;99.90
3528;DHT22;1778;47.966;7.854;2023-08-06T03:19:07;14.60;99.90
3528;DHT22;1778;47.966;7.854;2023-08-06T03:20:09;14.50;99.90
3528;DHT22;1778;47.966;7.854;2023-08-06T03:21:11;14.50;99.90
3528;DHT22;1778;47.966;7.854;2023-08-06T03:22:13;14.60;99.90
3528;DHT22;1778;47.966;7.854;2023-08-06T03:23:14;14.60;99.90
3528;DHT22;1778;47.966;7.854;2023-08-06T03:24:16;14.60;99.90
3528;DHT22;1778;47.966;7.854;2023-08-06T03:25:19;14.60;99.90
3528;DHT22;1778;47.966;7.854;2023-08-06T03:26:23;14.60;99.90
3528;DHT22;1778;47.966;7.854;2023-08-06T03:27:25;14.60;99.90
3528;DHT22;1778;47.966;7.854;2023-08-06T03:28:27;14.60;99.90
3528;DHT22;1778;47.966;7.854;2023-08-06T03:29:29;14.60;99.90
3528;DHT22;1778;47.966;7.854;2023-08-06T03:30:33;14.60;99.90
3528;DHT22;1778;47.966;7.854;2023-08-06T03:31:35;14.60;99.90
3528;DHT22;1778;47.966;7.854;2023-08-06T03:32:37;14.60;99.90
3528;DHT22;1778;47.966;7.854;2023-08-06T03:33:39;14.50;99.90
3528;DHT22;1778;47.966;7.854;2023-08-06T03:34:46;14.40;99.90
3528;DHT22;1778;47.966;7.854;2023-08-06T03:35:49;14.40;99.90
3528;DHT22;1778;47.966;7.854;2023-08-06T03:36:52;14.40;99.90
3528;DHT22;1778;47.966;7.854;2023-08-06T03:37:53;14.50;99.90
3528;DHT22;1778;47.966;7.854;2023-08-06T03:38:55;14.50;99.90
3528;DHT22;1778;47.966;7.854;2023-08-06T03:39:56;14.50;99.90
3528;DHT22;1778;47.966;7.854;2023-08-06T03:40:58;14.50;99.90
3528;DHT22;1778;47.966;7.854;2023-08-06T03:41:59;14.50;99.90
3528;DHT22;1778;47.966;7.854;2023-08-06T03:43:01;14.50;99.90
3528;DHT22;1778;47.966;7.854;2023-08-06T03:44:02;14.40;99.90
3528;DHT22;1778;47.966;7.854;2023-08-06T03:45:06;14.40;99.90
3528;DHT22;1778;47.966;7.854;2023-08-06T03:46:08;14.30;99.90
3528;DHT22;1778;47.966;7.854;2023-08-06T03:47:09;14.30;99.90
3528;DHT22;1778;47.966;7.854;2023-08-06T03:48:11;14.30;99.90
3528;DHT22;1778;47.966;7.854;2023-08-06T03:49:12;14.30;99.90
3528;DHT22;1778;47.966;7.854;2023-08-06T03:50:15;14.30;99.90
3528;DHT22;1778;47.966;7.854;2023-08-06T03:51:17;14.30;99.90
3528;DHT22;1778;47.966;7.854;2023-08-06T03:52:20;14.20;99.90
3528;DHT22;1778;47.966;7.854;2023-08-06T03:53:22;14.20;99.90
3528;DHT22;1778;47.966;7.854;2023-08-06T03:54:24;14.10;99.90
3528;DHT22;1778;47.966;7.854;2023-08-06T03:55:25;14.10;99.90
3528;DHT22;1778;47.966;7.854;2023-08-06T03:56:27;14.10;99.90
3528;DHT22;1778;47.966;7.854;2023-08-06T03:57:29;14.10;99.90
3528;DHT22;1778;47.966;7.854;2023-08-06T03:58:30;14.10;99.90
3528;DHT22;1778;47.966;7.854;2023-08-06T03:59:32;14.10;99.90
3528;DHT22;1778;47.966;7.854;2023-08-06T04:00:33;14.10;99.90
3528;DHT22;1778;47.966;7.854;2023-08-06T04:01:35;14.00;99.90
3528;DHT22;1778;47.966;7.854;2023-08-06T04:02:37;14.00;99.90
3528;DHT22;1778;47.966;7.854;2023-08-06T04:03:38;14.00;99.90
3528;DHT22;1778;47.966;7.854;2023-08-06T04:04:40;14.00;99.90
3528;DHT22;1778;47.966;7.854;2023-08-06T04:05:42;13.80;99.90
3528;DHT22;1778;47.966;7.854;2023-08-06T04:06:43;13.80;99.90
3528;DHT22;1778;47.966;7.854;2023-08-06T04:07:45;13.80;99.90
3528;DHT22;1778;47.966;7.854;2023-08-06T04:08:46;13.80;99.90
3528;DHT22;1778;47.966;7.854;2023-08-06T04:09:56;13.70;99.90
3528;DHT22;1778;47.966;7.854;2023-08-06T04:10:59;13.70;99.90
3528;DHT22;1778;47.966;7.854;2023-08-06T04:12:00;13.70;99.90
3528;DHT22;1778;47.966;7.854;2023-08-06T04:13:04;13.70;99.90
3528;DHT22;1778;47.966;7.854;2023-08-06T04:14:05;13.70;99.90
3528;DHT22;1778;47.966;7.854;2023-08-06T04:15:07;13.70;99.90
3528;DHT22;1778;47.966;7.854;2023-08-06T04:16:09;13.70;99.90
3528;DHT22;1778;47.966;7.854;2023-08-06T04:17:11;13.70;99.90
3528;DHT22;1778;47.966;7.854;2023-08-06T04:18:12;13.70;99.90
3528;DHT22;1778;47.966;7.854;2023-08-06T04:19:14;13.70;99.90
3528;DHT22;1778;47.966;7.854;2023-08-06T04:20:16;13.70;99.90
3528;DHT22;1778;47.966;7.854;2023-08-06T04:21:17;13.70;99.90
3528;DHT22;1778;47.966;7.854;2023-08-06T04:22:21;13.70;99.90
3528;DHT22;1778;47.966;7.854;2023-08-06T04:23:23;13.70;99.90
3528;DHT22;1778;47.966;7.854;2023-08-06T04:24:28;13.80;99.90
3528;DHT22;1778;47.966;7.854;2023-08-06T04:25:29;13.80;99.90
3528;DHT22;1778;47.966;7.854;2023-08-06T04:26:31;13.80;99.90
3528;DHT22;1778;47.966;7.854;2023-08-06T04:27:33;13.80;99.90
3528;DHT22;1778;47.966;7.854;2023-08-06T04:28:35;13.80;99.90
3528;DHT22;1778;47.966;7.854;2023-08-06T04:29:37;13.80;99.90
3528;DHT22;1778;47.966;7.854;2023-08-06T04:30:39;13.90;99.90
3528;DHT22;1778;47.966;7.854;2023-08-06T04:31:41;13.80;99.90
3528;DHT22;1778;47.966;7.854;2023-08-06T04:32:43;13.80;99.90
3528;DHT22;1778;47.966;7.854;2023-08-06T04:33:44;13.80;99.90
3528;DHT22;1778;47.966;7.854;2023-08-06T04:34:48;13.90;99.90
3528;DHT22;1778;47.966;7.854;2023-08-06T04:35:56;13.90;99.90
3528;DHT22;1778;47.966;7.854;2023-08-06T04:37:00;14.00;99.90
3528;DHT22;1778;47.966;7.854;2023-08-06T04:38:02;13.90;99.90
3528;DHT22;1778;47.966;7.854;2023-08-06T04:39:03;13.90;99.90
3528;DHT22;1778;47.966;7.854;2023-08-06T04:40:05;13.90;99.90
3528;DHT22;1778;47.966;7.854;2023-08-06T04:41:07;14.00;99.90
3528;DHT22;1778;47.966;7.854;2023-08-06T04:42:09;14.00;99.90
3528;DHT22;1778;47.966;7.854;2023-08-06T04:43:10;14.00;99.90
3528;DHT22;1778;47.966;7.854;2023-08-06T04:44:12;14.00;99.90
3528;DHT22;1778;47.966;7.854;2023-08-06T04:45:13;14.00;99.90
3528;DHT22;1778;47.966;7.854;2023-08-06T04:46:15;14.10;99.90
3528;DHT22;1778;47.966;7.854;2023-08-06T04:47:16;14.00;99.90
3528;DHT22;1778;47.966;7.854;2023-08-06T04:48:18;14.00;99.90
3528;DHT22;1778;47.966;7.854;2023-08-06T04:49:20;14.10;99.90
3528;DHT22;1778;47.966;7.854;2023-08-06T04:50:21;14.10;99.90
3528;DHT22;1778;47.966;7.854;2023-08-06T04:51:23;14.10;99.90
3528;DHT22;1778;47.966;7.854;2023-08-06T04:52:24;14.10;99.90
3528;DHT22;1778;47.966;7.854;2023-08-06T04:53:29;14.10;99.90
3528;DHT22;1778;47.966;7.854;2023-08-06T04:54:31;14.10;99.90
3528;DHT22;1778;47.966;7.854;2023-08-06T04:55:33;14.10;99.90
3528;DHT22;1778;47.966;7.854;2023-08-06T04:56:34;14.10;99.90
3528;DHT22;1778;47.966;7.854;2023-08-06T04:57:35;14.20;99.90
3528;DHT22;1778;47.966;7.854;2023-08-06T04:58:37;14.10;99.90
3528;DHT22;1778;47.966;7.854;2023-08-06T04:59:40;14.20;99.90
3528;DHT22;1778;47.966;7.854;2023-08-06T05:00:42;14.10;99.90
3528;DHT22;1778;47.966;7.854;2023-08-06T05:01:43;14.20;99.90
3528;DHT22;1778;47.966;7.854;2023-08-06T05:02:45;14.20;99.90
3528;DHT22;1778;47.966;7.854;2023-08-06T05:03:47;14.20;99.90
3528;DHT22;1778;47.966;7.854;2023-08-06T05:04:49;14.20;99.90
3528;DHT22;1778;47.966;7.854;2023-08-06T05:05:50;14.20;99.90
3528;DHT22;1778;47.966;7.854;2023-08-06T05:06:52;14.10;99.90
3528;DHT22;1778;47.966;7.854;2023-08-06T05:07:54;14.20;99.90
3528;DHT22;1778;47.966;7.854;2023-08-06T05:08:56;14.10;99.90
3528;DHT22;1778;47.966;7.854;2023-08-06T05:09:57;14.10;99.90
3528;DHT22;1778;47.966;7.854;2023-08-06T05:10:59;14.10;99.90
3528;DHT22;1778;47.966;7.854;2023-08-06T05:12:01;14.10;99.90
3528;DHT22;1778;47.966;7.854;2023-08-06T05:13:03;14.10;99.90
3528;DHT22;1778;47.966;7.854;2023-08-06T05:14:05;14.00;99.90
3528;DHT22;1778;47.966;7.854;2023-08-06T05:15:06;14.00;99.90
3528;DHT22;1778;47.966;7.854;2023-08-06T05:16:08;14.00;99.90
3528;DHT22;1778;47.966;7.854;2023-08-06T05:17:10;14.00;99.90
3528;DHT22;1778;47.966;7.854;2023-08-06T05:18:11;14.00;99.90
3528;DHT22;1778;47.966;7.854;2023-08-06T05:19:12;14.00;99.90
3528;DHT22;1778;47.966;7.854;2023-08-06T05:20:14;13.90;99.90
3528;DHT22;1778;47.966;7.854;2023-08-06T05:21:16;13.90;99.90
3528;DHT22;1778;47.966;7.854;2023-08-06T05:22:20;13.80;99.90
3528;DHT22;1778;47.966;7.854;2023-08-06T05:23:21;13.80;99.90
3528;DHT22;1778;47.966;7.854;2023-08-06T05:24:23;13.80;99.90
3528;DHT22;1778;47.966;7.854;2023-08-06T05:25:25;13.80;99.90
3528;DHT22;1778;47.966;7.854;2023-08-06T05:26:26;13.80;99.90
3528;DHT22;1778;47.966;7.854;2023-08-06T05:27:28;13.90;99.90
3528;DHT22;1778;47.966;7.854;2023-08-06T05:28:29;13.80;99.90
3528;DHT22;1778;47.966;7.854;2023-08-06T05:29:31;13.80;99.90
3528;DHT22;1778;47.966;7.854;2023-08-06T05:30:32;13.80;99.90
3528;DHT22;1778;47.966;7.854;2023-08-06T05:31:34;13.80;99.90
3528;DHT22;1778;47.966;7.854;2023-08-06T05:32:35;13.80;99.90
3528;DHT22;1778;47.966;7.854;2023-08-06T05:33:37;13.70;99.90
3528;DHT22;1778;47.966;7.854;2023-08-06T05:34:39;13.70;99.90
3528;DHT22;1778;47.966;7.854;2023-08-06T05:35:41;13.60;99.90
3528;DHT22;1778;47.966;7.854;2023-08-06T05:37:05;13.60;99.90
3528;DHT22;1778;47.966;7.854;2023-08-06T05:38:06;13.60;99.90
3528;DHT22;1778;47.966;7.854;2023-08-06T05:39:08;13.70;99.90
3528;DHT22;1778;47.966;7.854;2023-08-06T05:40:12;13.60;99.90
3528;DHT22;1778;47.966;7.854;2023-08-06T05:41:19;13.70;99.90
3528;DHT22;1778;47.966;7.854;2023-08-06T05:42:21;13.70;99.90
3528;DHT22;1778;47.966;7.854;2023-08-06T05:43:23;13.80;99.90
3528;DHT22;1778;47.966;7.854;2023-08-06T05:44:24;13.80;99.90
3528;DHT22;1778;47.966;7.854;2023-08-06T05:45:26;13.80;99.90
3528;DHT22;1778;47.966;7.854;2023-08-06T05:46:27;13.80;99.90
3528;DHT22;1778;47.966;7.854;2023-08-06T05:47:29;13.70;99.90
3528;DHT22;1778;47.966;7.854;2023-08-06T05:48:30;13.80;99.90
3528;DHT22;1778;47.966;7.854;2023-08-06T05:49:34;13.80;99.90
3528;DHT22;1778;47.966;7.854;2023-08-06T05:50:36;13.80;99.90
3528;DHT22;1778;47.966;7.854;2023-08-06T05:51:37;13.70;99.90
3528;DHT22;1778;47.966;7.854;2023-08-06T05:52:39;13.70;99.90
3528;DHT22;1778;47.966;7.854;2023-08-06T05:53:40;13.70;99.90
3528;DHT22;1778;47.966;7.854;2023-08-06T05:54:42;13.70;99.90
3528;DHT22;1778;47.966;7.854;2023-08-06T05:55:45;13.70;99.90
3528;DHT22;1778;47.966;7.854;2023-08-06T05:56:46;13.70;99.90
3528;DHT22;1778;47.966;7.854;2023-08-06T05:57:47;13.70;99.90
3528;DHT22;1778;47.966;7.854;2023-08-06T05:58:49;13.70;99.90
3528;DHT22;1778;47.966;7.854;2023-08-06T05:59:54;13.60;99.90
3528;DHT22;1778;47.966;7.854;2023-08-06T06:00:56;13.60;99.90
3528;DHT22;1778;47.966;7.854;2023-08-06T06:01:57;13.70;99.90
3528;DHT22;1778;47.966;7.854;2023-08-06T06:02:59;13.70;99.90
3528;DHT22;1778;47.966;7.854;2023-08-06T06:04:01;13.70;99.90
3528;DHT22;1778;47.966;7.854;2023-08-06T06:05:02;13.70;99.90
3528;DHT22;1778;47.966;7.854;2023-08-06T06:06:04;13.80;99.90
3528;DHT22;1778;47.966;7.854;2023-08-06T06:07:05;13.80;99.90
3528;DHT22;1778;47.966;7.854;2023-08-06T06:08:07;13.90;99.90
3528;DHT22;1778;47.966;7.854;2023-08-06T06:09:08;13.90;99.90
3528;DHT22;1778;47.966;7.854;2023-08-06T06:10:10;13.90;99.90
3528;DHT22;1778;47.966;7.854;2023-08-06T06:11:12;13.90;99.90
3528;DHT22;1778;47.966;7.854;2023-08-06T06:12:14;13.90;99.90
3528;DHT22;1778;47.966;7.854;2023-08-06T06:13:15;13.90;99.90
3528;DHT22;1778;47.966;7.854;2023-08-06T06:14:18;13.90;99.90
3528;DHT22;1778;47.966;7.854;2023-08-06T06:15:20;14.00;99.90
3528;DHT22;1778;47.966;7.854;2023-08-06T06:16:21;14.00;99.90
3528;DHT22;1778;47.966;7.854;2023-08-06T06:17:23;14.10;99.90
3528;DHT22;1778;47.966;7.854;2023-08-06T06:18:25;14.20;99.90
3528;DHT22;1778;47.966;7.854;2023-08-06T06:19:27;14.20;99.90
3528;DHT22;1778;47.966;7.854;2023-08-06T06:20:32;14.30;99.90
3528;DHT22;1778;47.966;7.854;2023-08-06T06:21:34;14.30;99.90
3528;DHT22;1778;47.966;7.854;2023-08-06T06:22:35;14.30;99.90
3528;DHT22;1778;47.966;7.854;2023-08-06T06:23:37;14.20;99.90
3528;DHT22;1778;47.966;7.854;2023-08-06T06:24:39;14.10;99.90
3528;DHT22;1778;47.966;7.854;2023-08-06T06:25:47;14.20;99.90
3528;DHT22;1778;47.966;7.854;2023-08-06T06:26:49;14.20;99.90
3528;DHT22;1778;47.966;7.854;2023-08-06T06:27:51;14.10;99.90
3528;DHT22;1778;47.966;7.854;2023-08-06T06:28:52;14.00;99.90
3528;DHT22;1778;47.966;7.854;2023-08-06T06:29:54;14.00;99.90
3528;DHT22;1778;47.966;7.854;2023-08-06T06:31:00;14.00;99.90
3528;DHT22;1778;47.966;7.854;2023-08-06T06:32:02;14.00;99.90
3528;DHT22;1778;47.966;7.854;2023-08-06T06:33:04;14.00;99.90
3528;DHT22;1778;47.966;7.854;2023-08-06T06:34:05;13.90;99.90
3528;DHT22;1778;47.966;7.854;2023-08-06T06:35:07;13.90;99.90
3528;DHT22;1778;47.966;7.854;2023-08-06T06:36:09;13.90;99.90
3528;DHT22;1778;47.966;7.854;2023-08-06T06:37:11;13.90;99.90
3528;DHT22;1778;47.966;7.854;2023-08-06T06:38:12;13.90;99.90
3528;DHT22;1778;47.966;7.854;2023-08-06T06:39:14;13.90;99.90
3528;DHT22;1778;47.966;7.854;2023-08-06T06:40:15;13.90;99.90
3528;DHT22;1778;47.966;7.854;2023-08-06T06:41:17;13.90;99.90
3528;DHT22;1778;47.966;7.854;2023-08-06T06:42:19;13.90;99.90
3528;DHT22;1778;47.966;7.854;2023-08-06T06:43:25;13.90;99.90
3528;DHT22;1778;47.966;7.854;2023-08-06T06:44:27;13.90;99.90
3528;DHT22;1778;47.966;7.854;2023-08-06T06:45:28;13.80;99.90
3528;DHT22;1778;47.966;7.854;2023-08-06T06:46:30;13.80;99.90
3528;DHT22;1778;47.966;7.854;2023-08-06T06:47:31;13.80;99.90
3528;DHT22;1778;47.966;7.854;2023-08-06T06:48:33;13.80;99.90
3528;DHT22;1778;47.966;7.854;2023-08-06T06:49:35;13.80;99.90
3528;DHT22;1778;47.966;7.854;2023-08-06T06:50:37;13.80;99.90
3528;DHT22;1778;47.966;7.854;2023-08-06T06:51:40;13.80;99.90
3528;DHT22;1778;47.966;7.854;2023-08-06T06:52:42;13.70;99.90
3528;DHT22;1778;47.966;7.854;2023-08-06T06:53:43;13.80;99.90
3528;DHT22;1778;47.966;7.854;2023-08-06T06:54:45;13.70;99.90